createdAt,value
2019-02-28T00:01:03.848Z,98337.99
2019-02-28T00:03:32.782Z,98340.27
2019-02-28T00:06:01.168Z,98337.06
2019-02-28T00:08:29.564Z,98341.42
2019-02-28T00:10:57.958Z,98346.41
2019-02-28T00:13:26.618Z,98346.06
2019-02-28T00:15:55.243Z,98341.23
2019-02-28T00:18:23.975Z,98345.11
2019-02-28T00:20:52.672Z,98346.84
2019-02-28T00:23:22.020Z,98342.19
2019-02-28T00:25:51.777Z,98342.77
2019-02-28T00:28:23.083Z,98346.00
2019-02-28T00:30:50.503Z,98338.20
2019-02-28T00:33:18.899Z,98337.20
2019-02-28T00:35:47.279Z,98329.58
2019-02-28T00:38:15.679Z,98329.67
2019-02-28T00:40:44.074Z,98328.30
2019-02-28T00:43:12.779Z,98315.16
2019-02-28T00:45:41.175Z,98325.36
2019-02-28T00:48:09.563Z,98313.92
2019-02-28T00:50:37.956Z,98311.15
2019-02-28T00:53:07.365Z,98312.30
2019-02-28T00:55:36.462Z,98312.80
2019-02-28T00:58:05.171Z,98301.49
2019-02-28T01:00:37.045Z,98306.37
2019-02-28T01:03:03.695Z,98298.45
2019-02-28T01:05:32.086Z,98291.96
2019-02-28T01:08:00.766Z,98290.02
2019-02-28T01:11:10.421Z,98280.23
2019-02-28T01:14:01.595Z,98280.97
2019-02-28T01:16:28.635Z,98272.95
2019-02-28T01:18:57.078Z,98271.39
2019-02-28T01:21:25.714Z,98265.44
2019-02-28T01:23:54.427Z,98259.97
2019-02-28T01:26:22.835Z,98256.45
2019-02-28T01:28:51.492Z,98259.44
2019-02-28T01:31:20.182Z,98252.60
2019-02-28T01:33:48.583Z,98248.84
2019-02-28T01:36:16.985Z,98247.47
2019-02-28T01:38:45.383Z,98243.58
2019-02-28T01:41:14.102Z,98238.44
2019-02-28T01:43:42.496Z,98237.41
2019-02-28T01:46:10.898Z,98234.43
2019-02-28T01:48:39.292Z,98230.09
2019-02-28T01:51:07.760Z,98222.13
2019-02-28T01:53:36.151Z,98221.55
2019-02-28T01:56:04.786Z,98217.73
2019-02-28T01:58:33.467Z,98218.47
2019-02-28T02:04:12.595Z,98211.14
2019-02-28T02:06:40.122Z,98211.20
2019-02-28T02:09:48.437Z,98209.83
2019-02-28T02:12:16.866Z,98208.77
2019-02-28T02:14:45.815Z,98202.66
2019-02-28T02:17:15.775Z,98208.08
2019-02-28T02:19:44.167Z,98208.41
2019-02-28T02:22:12.847Z,98211.73
2019-02-28T02:24:41.244Z,98210.09
2019-02-28T02:27:09.911Z,98206.52
2019-02-28T02:29:38.316Z,98202.42
2019-02-28T02:32:06.955Z,98206.11
2019-02-28T02:34:35.346Z,98198.97
2019-02-28T02:37:03.744Z,98202.00
2019-02-28T02:39:32.419Z,98198.50
2019-02-28T02:42:01.103Z,98191.23
2019-02-28T02:44:31.823Z,98189.53
2019-02-28T02:46:59.925Z,98193.14
2019-02-28T02:49:28.308Z,98192.36
2019-02-28T02:51:56.720Z,98185.23
2019-02-28T02:54:25.396Z,98181.23
2019-02-28T02:56:54.046Z,98179.66
2019-02-28T02:59:22.444Z,98176.68
2019-02-28T03:01:50.837Z,98178.92
2019-02-28T03:04:22.945Z,98170.48
2019-02-28T03:06:49.704Z,98171.30
2019-02-28T03:09:18.108Z,98168.33
2019-02-28T03:11:46.492Z,98160.96
2019-02-28T03:14:16.421Z,98158.77
2019-02-28T03:16:45.249Z,98156.33
2019-02-28T03:19:13.951Z,98155.45
2019-02-28T03:21:42.348Z,98157.36
2019-02-28T03:24:14.613Z,98152.23
2019-02-28T03:26:42.002Z,98160.13
2019-02-28T03:29:11.277Z,98147.63
2019-02-28T03:31:39.951Z,98148.17
2019-02-28T03:34:12.920Z,98150.08
2019-02-28T03:36:38.700Z,98151.44
2019-02-28T03:39:47.236Z,98148.17
2019-02-28T03:42:15.653Z,98145.44
2019-02-28T03:44:44.330Z,98134.77
2019-02-28T03:47:12.739Z,98129.64
2019-02-28T03:49:48.391Z,98135.31
2019-02-28T03:52:11.247Z,98128.48
2019-02-28T03:54:39.651Z,98130.17
2019-02-28T03:57:08.182Z,98131.58
2019-02-28T03:59:36.589Z,98132.66
2019-02-28T04:02:04.980Z,98126.95
2019-02-28T04:04:33.448Z,98130.22
2019-02-28T04:07:02.225Z,98131.55
2019-02-28T04:09:30.889Z,98132.41
2019-02-28T04:12:06.982Z,98136.25
2019-02-28T04:14:33.038Z,98129.13
2019-02-28T04:16:59.813Z,98127.80
2019-02-28T04:19:28.278Z,98130.53
2019-02-28T04:21:56.667Z,98130.79
2019-02-28T04:24:25.085Z,98133.80
2019-02-28T04:26:53.731Z,98132.70
2019-02-28T04:29:26.277Z,98130.25
2019-02-28T04:31:52.851Z,98135.96
2019-02-28T04:34:21.244Z,98133.27
2019-02-28T04:36:49.648Z,98136.82
2019-02-28T04:39:18.288Z,98136.28
2019-02-28T04:41:46.696Z,98137.11
2019-02-28T04:44:15.401Z,98133.55
2019-02-28T04:46:45.209Z,98130.47
2019-02-28T04:49:13.844Z,98128.52
2019-02-28T04:51:42.231Z,98127.52
2019-02-28T04:54:10.634Z,98137.36
2019-02-28T04:56:39.032Z,98131.36
2019-02-28T04:59:07.437Z,98133.02
2019-02-28T05:01:36.156Z,98134.41
2019-02-28T05:04:04.546Z,98136.86
2019-02-28T05:06:33.219Z,98137.39
2019-02-28T05:09:01.860Z,98137.17
2019-02-28T05:11:31.464Z,98133.33
2019-02-28T05:14:01.058Z,98131.97
2019-02-28T05:16:29.702Z,98131.68
2019-02-28T05:19:01.419Z,98137.99
2019-02-28T05:21:50.668Z,98136.91
2019-02-28T05:24:18.010Z,98142.05
2019-02-28T05:26:46.666Z,98134.16
2019-02-28T05:29:15.292Z,98142.63
2019-02-28T05:31:43.708Z,98143.45
2019-02-28T05:34:13.165Z,98144.59
2019-02-28T05:36:42.453Z,98143.48
2019-02-28T05:39:31.011Z,98146.72
2019-02-28T05:42:00.303Z,98142.63
2019-02-28T05:44:28.695Z,98144.58
2019-02-28T05:46:58.097Z,98141.36
2019-02-28T05:49:27.213Z,98143.55
2019-02-28T05:51:58.687Z,98141.09
2019-02-28T05:54:25.709Z,98144.64
2019-02-28T05:56:54.120Z,98146.57
2019-02-28T05:59:26.005Z,98150.66
2019-02-28T06:01:52.624Z,98153.39
2019-02-28T06:04:21.016Z,98151.20
2019-02-28T06:06:51.485Z,98155.27
2019-02-28T06:09:19.545Z,98157.73
2019-02-28T06:11:48.182Z,98147.66
2019-02-28T06:14:16.895Z,98151.73
2019-02-28T06:16:46.721Z,98160.73
2019-02-28T06:22:10.699Z,98161.25
2019-02-28T06:24:39.092Z,98161.55
2019-02-28T06:27:07.658Z,98164.80
2019-02-28T06:29:36.778Z,98171.89
2019-02-28T06:32:06.194Z,98172.41
2019-02-28T06:34:34.582Z,98179.19
2019-02-28T06:37:03.688Z,98175.61
2019-02-28T06:39:33.105Z,98182.72
2019-02-28T06:42:01.482Z,98181.89
2019-02-28T06:44:29.888Z,98187.77
2019-02-28T06:46:58.514Z,98197.04
2019-02-28T06:49:27.167Z,98204.38
2019-02-28T06:51:55.851Z,98200.49
2019-02-28T06:54:24.539Z,98200.78
2019-02-28T06:56:54.031Z,98204.83
2019-02-28T06:59:23.088Z,98203.09
2019-02-28T07:01:56.195Z,98209.09
2019-02-28T07:04:21.851Z,98213.59
2019-02-28T07:06:50.475Z,98206.52
2019-02-28T07:09:18.880Z,98200.98
2019-02-28T07:11:47.502Z,98208.50
2019-02-28T07:14:15.900Z,98202.96
2019-02-28T07:16:44.307Z,98201.53
2019-02-28T07:19:12.935Z,98204.98
2019-02-28T07:21:43.873Z,98199.64
2019-02-28T07:24:11.691Z,98207.89
2019-02-28T07:26:40.338Z,98207.51
2019-02-28T07:29:28.069Z,98206.62
2019-02-28T07:31:59.960Z,98207.67
2019-02-28T07:34:26.583Z,98211.08
2019-02-28T07:36:55.241Z,98203.24
2019-02-28T07:39:23.650Z,98209.20
2019-02-28T07:41:52.030Z,98204.24
2019-02-28T07:44:22.218Z,98204.47
2019-02-28T07:46:50.807Z,98205.50
2019-02-28T07:49:19.486Z,98201.32
2019-02-28T07:51:47.888Z,98209.83
2019-02-28T07:54:16.691Z,98205.13
2019-02-28T07:56:46.370Z,98199.84
2019-02-28T07:59:14.994Z,98201.27
2019-02-28T08:01:43.451Z,98201.86
2019-02-28T08:04:11.859Z,98208.98
2019-02-28T08:06:40.489Z,98205.52
2019-02-28T08:09:30.287Z,98201.01
2019-02-28T08:11:58.656Z,98199.53
2019-02-28T08:14:27.047Z,98204.23
2019-02-28T08:16:55.820Z,98192.57
2019-02-28T08:19:27.178Z,98194.60
2019-02-28T08:21:54.627Z,98188.46
2019-02-28T08:24:23.010Z,98187.18
2019-02-28T08:26:53.510Z,98188.09
2019-02-28T08:29:22.049Z,98181.49
2019-02-28T08:31:50.464Z,98188.17
2019-02-28T08:34:20.571Z,98180.65
2019-02-28T08:36:49.507Z,98194.91
2019-02-28T08:39:57.818Z,98187.07
2019-02-28T08:42:26.438Z,98183.45
2019-02-28T08:44:58.950Z,98186.73
2019-02-28T08:47:25.456Z,98186.47
2019-02-28T08:49:53.834Z,98180.97
2019-02-28T08:52:22.480Z,98175.78
2019-02-28T08:54:50.863Z,98173.35
2019-02-28T08:57:22.018Z,98176.16
2019-02-28T08:59:49.364Z,98173.66
2019-02-28T09:02:18.979Z,98186.17
2019-02-28T09:04:50.853Z,98177.59
2019-02-28T09:07:18.511Z,98176.63
2019-02-28T09:09:46.895Z,98177.79
2019-02-28T09:12:15.295Z,98172.63
2019-02-28T09:14:43.932Z,98168.45
2019-02-28T09:17:12.336Z,98165.39
2019-02-28T09:20:00.352Z,98162.88
2019-02-28T09:23:08.920Z,98173.94
2019-02-28T09:25:37.305Z,98166.52
2019-02-28T09:28:47.503Z,98161.53
2019-02-28T09:31:15.981Z,98162.75
2019-02-28T09:33:44.683Z,98170.34
2019-02-28T09:36:32.419Z,98161.44
2019-02-28T09:39:00.811Z,98161.44
2019-02-28T09:41:29.218Z,98160.87
2019-02-28T09:44:00.206Z,98152.17
2019-02-28T09:46:28.206Z,98151.31
2019-02-28T09:48:56.859Z,98155.11
2019-02-28T09:51:44.584Z,98125.05
2019-02-28T09:54:13.052Z,98125.05
2019-02-28T09:57:01.235Z,98134.74
2019-02-28T09:59:29.604Z,98134.74
2019-02-28T10:02:17.636Z,98147.83
2019-02-28T10:04:46.040Z,98140.86
2019-02-28T10:07:14.435Z,98143.42
2019-02-28T10:09:44.354Z,98137.62
2019-02-28T10:12:13.204Z,98128.43
2019-02-28T10:14:41.610Z,98128.86
2019-02-28T10:17:10.046Z,98126.03
2019-02-28T10:19:45.575Z,98125.37
2019-02-28T10:22:10.102Z,98123.22
2019-02-28T10:24:39.291Z,98124.98
2019-02-28T10:27:07.975Z,98126.66
2019-02-28T10:29:38.456Z,98117.73
2019-02-28T10:32:08.961Z,98123.75
2019-02-28T10:34:36.897Z,98121.75
2019-02-28T10:37:05.292Z,98108.07
2019-02-28T10:39:33.676Z,98125.85
2019-02-28T10:42:05.213Z,98125.85
2019-02-28T10:44:32.456Z,98118.41
2019-02-28T10:47:01.155Z,98114.36
2019-02-28T10:49:29.554Z,98121.48
2019-02-28T10:51:58.216Z,98112.11
2019-02-28T10:54:26.913Z,98111.28
2019-02-28T10:56:55.536Z,98088.83
2019-02-28T10:59:24.500Z,98090.67
2019-02-28T11:01:54.595Z,98096.64
2019-02-28T11:04:23.288Z,98095.30
2019-02-28T11:06:51.967Z,98105.91
2019-02-28T11:09:21.408Z,98097.23
2019-02-28T11:11:50.533Z,98098.63
2019-02-28T11:14:18.928Z,98095.51
2019-02-28T11:16:47.632Z,98087.04
2019-02-28T11:19:18.631Z,98090.64
2019-02-28T11:21:46.440Z,98094.02
2019-02-28T11:24:14.965Z,98089.19
2019-02-28T11:26:44.887Z,98083.81
2019-02-28T11:29:13.839Z,98072.00
2019-02-28T11:31:42.616Z,98069.03
2019-02-28T11:34:14.787Z,98054.88
2019-02-28T11:36:41.516Z,98056.66
2019-02-28T11:39:50.116Z,98062.82
2019-02-28T11:42:18.727Z,98060.03
2019-02-28T11:44:47.706Z,98057.17
2019-02-28T11:47:17.244Z,98059.20
2019-02-28T11:49:45.717Z,98061.62
2019-02-28T11:52:15.953Z,98055.88
2019-02-28T11:54:45.331Z,98059.09
2019-02-28T11:57:15.354Z,98039.99
2019-02-28T11:59:43.744Z,98046.77
2019-02-28T12:02:12.148Z,98058.78
2019-02-28T12:04:41.198Z,98041.71
2019-02-28T12:07:10.660Z,98042.30
2019-02-28T12:09:39.055Z,98043.52
2019-02-28T12:12:10.415Z,98031.85
2019-02-28T12:14:37.636Z,98029.66
2019-02-28T12:17:06.393Z,98027.54
2019-02-28T12:19:35.062Z,98022.42
2019-02-28T12:22:03.754Z,98014.30
2019-02-28T12:24:33.181Z,98016.47
2019-02-28T12:27:04.101Z,98005.28
2019-02-28T12:29:32.991Z,98009.53
2019-02-28T12:32:01.666Z,98008.36
2019-02-28T12:34:30.085Z,98002.92
2019-02-28T12:36:59.875Z,98011.35
2019-02-28T12:39:28.865Z,98009.20
2019-02-28T12:41:59.514Z,97998.11
2019-02-28T12:44:27.771Z,97996.37
2019-02-28T12:46:56.154Z,97989.06
2019-02-28T12:49:26.162Z,97988.72
2019-02-28T12:51:55.470Z,98000.45
2019-02-28T12:54:25.964Z,98001.85
2019-02-28T12:56:54.238Z,97989.78
2019-02-28T12:59:46.046Z,97987.52
2019-02-28T13:02:12.398Z,97991.48
2019-02-28T13:05:00.470Z,97961.94
2019-02-28T13:07:30.424Z,97963.28
2019-02-28T13:09:59.673Z,97967.20
2019-02-28T13:12:28.296Z,97957.90
2019-02-28T13:14:57.153Z,97961.16
2019-02-28T13:17:28.324Z,97962.27
2019-02-28T13:19:56.563Z,97966.56
2019-02-28T13:22:26.076Z,97958.77
2019-02-28T13:24:54.630Z,97955.05
2019-02-28T13:27:23.276Z,97957.81
2019-02-28T13:29:53.226Z,97949.04
2019-02-28T13:32:22.044Z,97947.70
2019-02-28T13:34:50.453Z,97955.58
2019-02-28T13:37:18.839Z,97948.41
2019-02-28T13:39:47.242Z,97941.77
2019-02-28T13:42:15.968Z,97950.63
2019-02-28T13:44:44.371Z,97947.55
2019-02-28T13:47:13.152Z,97949.58
2019-02-28T13:49:41.821Z,97950.63
2019-02-28T13:52:10.292Z,97944.98
2019-02-28T13:54:42.148Z,97951.46
2019-02-28T13:57:10.033Z,97946.44
2019-02-28T13:59:39.253Z,97938.11
2019-02-28T14:02:07.617Z,97950.77
2019-02-28T14:04:36.016Z,97941.00
2019-02-28T14:07:04.674Z,97937.69
2019-02-28T14:09:33.315Z,97939.08
2019-02-28T14:12:01.773Z,97933.69
2019-02-28T14:14:30.161Z,97942.18
2019-02-28T14:17:01.322Z,97937.19
2019-02-28T14:19:28.738Z,97931.55
2019-02-28T14:21:57.150Z,97934.63
2019-02-28T14:24:27.507Z,97937.00
2019-02-28T14:26:55.993Z,97935.02
2019-02-28T14:29:24.586Z,97932.18
2019-02-28T14:31:52.983Z,97939.73
2019-02-28T14:34:21.458Z,97927.67
2019-02-28T14:36:49.848Z,97928.33
2019-02-28T14:39:18.234Z,97926.45
2019-02-28T14:41:46.890Z,97922.56
2019-02-28T14:44:15.585Z,97912.75
2019-02-28T14:46:43.989Z,97909.17
2019-02-28T14:49:13.401Z,97910.72
2019-02-28T14:51:42.756Z,97912.70
2019-02-28T14:54:11.445Z,97903.94
2019-02-28T14:56:42.246Z,97907.98
2019-02-28T14:59:10.556Z,97906.48
2019-02-28T15:01:39.249Z,97901.97
2019-02-28T15:04:08.716Z,97899.80
2019-02-28T15:06:38.129Z,97888.38
2019-02-28T15:09:46.416Z,97902.28
2019-02-28T15:12:14.817Z,97893.09
2019-02-28T15:15:02.544Z,97880.97
2019-02-28T15:17:38.712Z,97880.69
2019-02-28T15:20:47.808Z,97883.95
2019-02-28T15:23:16.556Z,97887.78
2019-02-28T15:25:44.949Z,97881.77
2019-02-28T15:28:13.926Z,97880.67
2019-02-28T15:30:43.526Z,97882.26
2019-02-28T15:33:12.224Z,97879.41
2019-02-28T15:35:40.627Z,97882.87
2019-02-28T15:38:10.434Z,97890.28
2019-02-28T15:41:19.348Z,97876.97
2019-02-28T15:43:50.318Z,97875.41
2019-02-28T15:46:18.149Z,97888.95
2019-02-28T15:48:46.836Z,97893.33
2019-02-28T15:51:34.876Z,97899.42
2019-02-28T15:54:25.177Z,97906.78
2019-02-28T15:56:55.390Z,97912.94
2019-02-28T15:59:23.392Z,97914.05
2019-02-28T16:01:52.149Z,97919.92
2019-02-28T16:04:23.535Z,97927.67
2019-02-28T16:06:56.629Z,97937.58
2019-02-28T16:09:21.401Z,97945.03
2019-02-28T16:11:50.953Z,97932.80
2019-02-28T16:14:19.337Z,97939.02
2019-02-28T16:16:47.738Z,97945.66
2019-02-28T16:19:35.468Z,97944.52
2019-02-28T16:22:04.164Z,97954.59
2019-02-28T16:24:32.852Z,97951.72
2019-02-28T16:27:01.253Z,97940.27
2019-02-28T16:29:29.912Z,97938.46
2019-02-28T16:32:14.121Z,97955.25
2019-02-28T16:34:42.471Z,97954.89
2019-02-28T16:37:11.135Z,97951.11
2019-02-28T16:39:39.533Z,97946.06
2019-02-28T16:42:08.402Z,97956.58
2019-02-28T16:44:38.312Z,97948.41
2019-02-28T16:47:06.716Z,97958.18
2019-02-28T16:49:35.101Z,97963.06
2019-02-28T16:52:06.074Z,97973.27
2019-02-28T16:54:33.975Z,97969.07
2019-02-28T16:57:21.700Z,97982.25
2019-02-28T16:59:50.409Z,97982.25
2019-02-28T17:02:18.787Z,97979.63
2019-02-28T17:05:28.356Z,97962.78
2019-02-28T17:08:37.230Z,97962.78
2019-02-28T17:11:05.932Z,97991.80
2019-02-28T17:17:02.109Z,97994.48
2019-02-28T17:19:49.858Z,98006.18
2019-02-28T17:22:18.240Z,98012.19
2019-02-28T17:25:06.543Z,98010.41
2019-02-28T17:33:22.568Z,98023.58
2019-02-28T17:35:51.259Z,98026.58
2019-02-28T17:38:39.013Z,98028.77
2019-02-28T17:41:07.432Z,98031.97
2019-02-28T17:44:15.732Z,98031.97
2019-02-28T17:47:25.690Z,98046.05
2019-02-28T17:50:34.116Z,98037.94
2019-02-28T17:53:45.713Z,98044.34
2019-02-28T17:56:51.114Z,98051.80
2019-02-28T17:59:58.088Z,98051.80
2019-02-28T18:03:06.442Z,98055.02
2019-02-28T18:06:13.662Z,98062.81
2019-02-28T18:09:20.650Z,98060.70
2019-02-28T18:12:44.246Z,98069.34
2019-02-28T18:15:37.701Z,98069.34
2019-02-28T18:18:44.689Z,98066.48
2019-02-28T18:21:53.222Z,98067.81
2019-02-28T18:25:01.819Z,98073.66
2019-02-28T18:28:08.808Z,98071.39
2019-02-28T18:31:19.249Z,98089.92
2019-02-28T18:34:05.487Z,98077.19
2019-02-28T18:36:34.268Z,98074.59
2019-02-28T18:39:22.324Z,98089.84
2019-02-28T18:41:50.891Z,98081.33
2019-02-28T18:44:19.284Z,98092.80
2019-02-28T18:46:48.902Z,98086.38
2019-02-28T18:49:37.424Z,98083.61
2019-02-28T18:52:05.829Z,98095.08
2019-02-28T18:54:34.490Z,98101.16
2019-02-28T18:57:02.880Z,98098.14
2019-02-28T18:59:31.557Z,98112.78
2019-02-28T19:01:59.946Z,98103.30
2019-02-28T19:04:47.683Z,98103.22
2019-02-28T19:07:16.352Z,98110.28
2019-02-28T19:09:44.756Z,98117.30
2019-02-28T19:12:13.403Z,98117.71
2019-02-28T19:14:42.108Z,98113.83
2019-02-28T19:17:10.505Z,98125.84
2019-02-28T19:19:39.173Z,98118.55
2019-02-28T19:22:07.572Z,98129.83
2019-02-28T19:24:55.588Z,98136.08
2019-02-28T19:27:24.276Z,98133.34
2019-02-28T19:29:52.661Z,98146.08
2019-02-28T19:32:21.284Z,98140.70
2019-02-28T19:34:49.684Z,98142.58
2019-02-28T19:37:18.067Z,98150.64
2019-02-28T19:39:46.714Z,98151.91
2019-02-28T19:42:15.094Z,98145.75
2019-02-28T19:44:43.739Z,98144.70
2019-02-28T19:47:12.135Z,98150.08
2019-02-28T19:49:40.820Z,98144.54
2019-02-28T19:52:09.493Z,98137.56
2019-02-28T19:54:37.877Z,98141.29
2019-02-28T19:57:06.554Z,98139.02
2019-02-28T19:59:35.250Z,98129.23
2019-02-28T20:02:03.714Z,98120.41
2019-02-28T20:04:32.093Z,98133.82
2019-02-28T20:07:00.789Z,98137.61
2019-02-28T20:09:29.471Z,98147.38
2019-02-28T20:11:57.924Z,98142.59
2019-02-28T20:14:26.654Z,98143.94
2019-02-28T20:16:55.343Z,98147.69
2019-02-28T20:19:24.012Z,98139.41
2019-02-28T20:21:52.802Z,98131.92
2019-02-28T20:24:21.242Z,98137.34
2019-02-28T20:29:44.982Z,98132.34
2019-02-28T20:32:13.761Z,98123.83
2019-02-28T20:34:42.142Z,98120.64
2019-02-28T20:37:10.846Z,98118.63
2019-02-28T20:39:39.207Z,98118.37
2019-02-28T20:42:07.657Z,98114.65
2019-02-28T20:44:36.367Z,98118.23
2019-02-28T20:47:05.159Z,98116.98
2019-02-28T20:49:33.565Z,98108.32
2019-02-28T20:52:01.935Z,98109.36
2019-02-28T20:54:30.333Z,98107.75
2019-02-28T20:56:58.787Z,98108.87
2019-02-28T20:59:27.167Z,98107.98
2019-02-28T21:01:55.584Z,98105.48
2019-02-28T21:04:23.959Z,98113.50
2019-02-28T21:06:52.702Z,98109.28
2019-02-28T21:09:21.086Z,98108.22
2019-02-28T21:11:49.867Z,98106.45
2019-02-28T21:14:18.307Z,98110.98
2019-02-28T21:16:47.039Z,98105.06
2019-02-28T21:19:15.719Z,98109.59
2019-02-28T21:22:24.265Z,98101.09
2019-02-28T21:24:52.888Z,98101.27
2019-02-28T21:27:21.267Z,98091.83
2019-02-28T21:29:49.667Z,98087.86
2019-02-28T21:32:18.049Z,98087.77
2019-02-28T21:34:46.748Z,98084.11
2019-02-28T21:37:15.435Z,98080.79
2019-02-28T21:39:44.121Z,98081.28
2019-02-28T21:42:12.596Z,98083.55
2019-02-28T21:44:40.955Z,98087.46
2019-02-28T21:47:09.664Z,98067.55
2019-02-28T21:49:38.289Z,98068.88
2019-02-28T21:52:06.736Z,98072.19
2019-02-28T21:54:35.119Z,98067.88
2019-02-28T21:57:22.887Z,98056.84
2019-02-28T21:59:51.533Z,98057.09
2019-02-28T22:02:20.214Z,98050.42
2019-02-28T22:04:48.611Z,98049.85
2019-02-28T22:07:17.291Z,98042.48
2019-02-28T22:09:45.693Z,98038.52
2019-02-28T22:12:14.072Z,98040.84
2019-02-28T22:14:42.454Z,98046.12
2019-02-28T22:17:10.854Z,98046.36
2019-02-28T22:19:39.236Z,98041.17
2019-02-28T22:22:07.635Z,98042.32
2019-02-28T22:24:36.020Z,98047.84
2019-02-28T22:27:04.486Z,98045.71
2019-02-28T22:29:32.878Z,98038.09
2019-02-28T22:37:29.835Z,98034.13
2019-02-28T22:39:58.231Z,98030.39
2019-02-28T22:42:26.623Z,98030.62
2019-02-28T22:44:55.016Z,98032.75
2019-02-28T22:47:23.399Z,98033.55
2019-02-28T22:49:52.024Z,98026.26
2019-02-28T22:52:20.760Z,98023.23
2019-02-28T22:54:49.449Z,98016.02
2019-02-28T22:57:18.133Z,98018.85
2019-02-28T22:59:46.821Z,98013.99
2019-02-28T23:02:15.222Z,98019.09
2019-02-28T23:04:43.606Z,98001.10
2019-02-28T23:07:12.003Z,98010.27
2019-02-28T23:09:40.390Z,98006.76
2019-02-28T23:12:08.766Z,98005.15
2019-02-28T23:14:37.162Z,98009.02
2019-02-28T23:17:05.534Z,98006.44
2019-02-28T23:19:33.940Z,98000.03
2019-02-28T23:22:02.316Z,97992.88
2019-02-28T23:24:30.695Z,97989.54
2019-02-28T23:27:18.427Z,97985.73
2019-02-28T23:30:26.743Z,97985.31
2019-02-28T23:33:14.889Z,97977.44
2019-02-28T23:35:43.292Z,97977.04
2019-02-28T23:38:11.672Z,97966.08
2019-02-28T23:40:40.339Z,97960.04
2019-02-28T23:43:08.727Z,97963.62
2019-02-28T23:45:37.162Z,97960.00
2019-02-28T23:48:05.632Z,97970.50
2019-02-28T23:50:34.016Z,97974.57
2019-02-28T23:53:02.407Z,97961.48
2019-02-28T23:55:30.791Z,97977.68
2019-02-28T23:57:59.195Z,97971.55
